createdAt,value
2022-10-10T00:02:20.154Z,5.63
2022-10-10T00:07:23.013Z,5.61
2022-10-10T00:12:25.720Z,5.48
2022-10-10T00:23:48.854Z,5.32
2022-10-10T00:28:51.590Z,5.22
2022-10-10T00:33:54.558Z,5.17
2022-10-10T00:38:58.634Z,5.22
2022-10-10T00:44:03.749Z,5.15
2022-10-10T00:49:12.416Z,5.15
2022-10-10T00:54:18.932Z,5.08
2022-10-10T00:59:22.501Z,5.00
2022-10-10T01:04:36.003Z,4.95
2022-10-10T01:09:43.367Z,4.85
2022-10-10T01:14:48.704Z,4.81
2022-10-10T01:20:22.426Z,4.75
2022-10-10T01:25:31.172Z,4.70
2022-10-10T01:30:36.335Z,4.62
2022-10-10T01:35:49.585Z,4.57
2022-10-10T01:40:57.239Z,4.52
2022-10-10T01:46:02.089Z,4.50
2022-10-10T01:51:21.298Z,4.45
2022-10-10T01:56:36.063Z,4.40
2022-10-10T02:01:48.544Z,4.46
2022-10-10T02:06:55.638Z,4.42
2022-10-10T02:12:00.934Z,4.36
2022-10-10T02:17:09.732Z,4.37
2022-10-10T02:22:12.688Z,4.34
2022-10-10T02:27:22.581Z,4.31
2022-10-10T02:32:32.589Z,4.23
2022-10-10T02:37:37.017Z,4.20
2022-10-10T02:42:41.146Z,4.13
2022-10-10T02:47:45.756Z,4.10
2022-10-10T02:52:48.851Z,4.05
2022-10-10T02:57:51.904Z,4.00
2022-10-10T03:02:55.954Z,3.99
2022-10-10T03:07:58.794Z,3.95
2022-10-10T03:13:02.105Z,3.88
2022-10-10T03:18:06.375Z,3.88
2022-10-10T03:23:09.084Z,3.90
2022-10-10T03:28:12.281Z,3.85
2022-10-10T03:33:16.867Z,3.77
2022-10-10T03:38:20.505Z,3.75
2022-10-10T03:43:23.237Z,3.81
2022-10-10T03:48:27.841Z,3.77
2022-10-10T03:53:30.652Z,3.78
2022-10-10T03:58:33.515Z,3.77
2022-10-10T04:03:37.570Z,3.71
2022-10-10T04:08:40.306Z,3.68
2022-10-10T04:13:43.273Z,3.62
2022-10-10T04:18:47.928Z,3.69
2022-10-10T04:23:50.678Z,3.64
2022-10-10T04:28:53.508Z,3.53
2022-10-10T04:33:57.714Z,3.58
2022-10-10T04:39:00.490Z,3.56
2022-10-10T04:44:03.943Z,3.57
2022-10-10T04:49:08.026Z,3.52
2022-10-10T04:54:10.967Z,3.56
2022-10-10T04:59:13.764Z,3.49
2022-10-10T05:04:17.847Z,3.48
2022-10-10T05:14:48.291Z,3.41
2022-10-10T05:19:53.736Z,3.42
2022-10-10T05:24:56.693Z,3.45
2022-10-10T05:29:59.414Z,3.44
2022-10-10T05:35:04.700Z,3.48
2022-10-10T05:40:08.691Z,3.46
2022-10-10T05:45:11.804Z,3.44
2022-10-10T05:50:28.956Z,3.48
2022-10-10T05:55:31.477Z,3.47
2022-10-10T06:00:35.947Z,3.51
2022-10-10T06:05:42.208Z,3.64
2022-10-10T06:10:47.097Z,3.78
2022-10-10T06:15:52.005Z,3.98
2022-10-10T06:20:56.182Z,4.14
2022-10-10T06:25:58.909Z,4.43
2022-10-10T06:31:04.028Z,4.61
2022-10-10T06:36:09.373Z,4.88
2022-10-10T06:41:12.807Z,5.14
2022-10-10T06:46:15.646Z,5.52
2022-10-10T06:51:19.981Z,5.86
2022-10-10T06:56:27.380Z,6.20
2022-10-10T07:01:30.824Z,6.52
2022-10-10T07:06:35.231Z,6.76
2022-10-10T07:11:38.002Z,7.20
2022-10-10T07:16:40.763Z,7.51
2022-10-10T07:21:45.015Z,7.81
2022-10-10T07:26:47.814Z,7.98
2022-10-10T07:31:50.612Z,8.36
2022-10-10T07:36:54.746Z,8.64
2022-10-10T07:41:57.577Z,8.86
2022-10-10T07:47:00.330Z,9.21
2022-10-10T07:52:05.647Z,9.53
2022-10-10T07:57:11.655Z,9.86
2022-10-10T08:02:14.496Z,10.06
2022-10-10T08:12:46.781Z,10.47
2022-10-10T08:17:49.814Z,10.82
2022-10-10T08:22:54.466Z,10.99
2022-10-10T08:27:57.891Z,11.23
2022-10-10T08:33:02.187Z,11.42
2022-10-10T08:38:06.457Z,11.63
2022-10-10T08:43:11.378Z,11.70
2022-10-10T08:48:17.405Z,12.04
2022-10-10T08:53:25.572Z,12.23
2022-10-10T08:58:33.422Z,12.37
2022-10-10T09:03:40.609Z,12.58
2022-10-10T09:08:55.670Z,12.89
2022-10-10T09:14:14.133Z,13.11
2022-10-10T09:19:25.647Z,13.33
2022-10-10T09:24:39.921Z,13.62
2022-10-10T09:29:53.236Z,13.90
2022-10-10T09:35:02.156Z,14.29
2022-10-10T09:40:13.801Z,14.64
2022-10-10T09:45:20.494Z,14.95
2022-10-10T09:50:24.337Z,14.97
2022-10-10T09:55:34.005Z,15.52
2022-10-10T10:00:37.998Z,15.90
2022-10-10T10:05:42.793Z,16.14
2022-10-10T10:10:47.012Z,16.55
2022-10-10T10:15:52.709Z,16.66
2022-10-10T10:21:12.138Z,16.96
2022-10-10T10:26:22.287Z,17.59
2022-10-10T10:31:44.486Z,17.54
2022-10-10T10:36:57.363Z,17.81
2022-10-10T10:42:11.698Z,18.22
2022-10-10T10:47:32.528Z,18.70
2022-10-10T10:52:54.499Z,18.89
2022-10-10T11:05:18.281Z,20.11
2022-10-10T11:09:45.145Z,20.49
2022-10-10T11:14:56.501Z,20.46
2022-10-10T11:20:04.055Z,20.77
2022-10-10T11:25:15.201Z,20.85
2022-10-10T11:30:22.637Z,21.24
2022-10-10T11:35:35.747Z,21.70
2022-10-10T11:40:47.722Z,21.93
2022-10-10T11:46:02.685Z,22.01
2022-10-10T11:51:16.895Z,22.49
2022-10-10T11:56:29.925Z,23.13
2022-10-10T12:01:37.722Z,23.23
2022-10-10T12:06:45.589Z,23.48
2022-10-10T12:11:53.716Z,23.92
2022-10-10T12:16:59.143Z,24.07
2022-10-10T12:22:04.930Z,23.85
2022-10-10T12:27:47.236Z,24.15
2022-10-10T12:32:54.297Z,24.00
2022-10-10T12:38:22.971Z,23.49
2022-10-10T12:43:37.297Z,24.42
2022-10-10T12:48:42.660Z,23.84
2022-10-10T12:53:51.068Z,22.78
2022-10-10T12:58:53.874Z,22.28
2022-10-10T13:03:58.852Z,22.31
2022-10-10T13:09:03.812Z,22.16
2022-10-10T13:14:09.788Z,21.74
2022-10-10T13:19:19.341Z,21.62
2022-10-10T13:24:32.770Z,21.33
2022-10-10T13:29:37.511Z,21.28
2022-10-10T13:34:47.721Z,20.90
2022-10-10T13:39:52.156Z,21.03
2022-10-10T13:44:56.114Z,20.58
2022-10-10T13:50:00.255Z,20.74
2022-10-10T13:55:17.014Z,20.98
2022-10-10T14:00:23.371Z,20.88
2022-10-10T14:05:30.219Z,20.80
2022-10-10T14:10:35.968Z,20.78
2022-10-10T14:15:45.633Z,20.60
2022-10-10T14:20:50.694Z,20.46
2022-10-10T14:25:53.599Z,20.52
2022-10-10T14:30:56.423Z,20.82
2022-10-10T14:36:06.903Z,20.67
2022-10-10T14:41:12.943Z,20.81
2022-10-10T14:46:20.638Z,20.88
2022-10-10T14:51:33.695Z,20.76
2022-10-10T14:57:09.326Z,20.62
2022-10-10T15:02:00.791Z,20.36
2022-10-10T15:07:13.473Z,20.15
2022-10-10T15:12:17.528Z,20.28
2022-10-10T15:17:20.623Z,20.40
2022-10-10T15:22:25.553Z,20.27
2022-10-10T15:27:29.039Z,20.12
2022-10-10T15:32:31.842Z,20.08
2022-10-10T15:37:36.231Z,20.01
2022-10-10T15:42:39.497Z,20.07
2022-10-10T15:47:46.486Z,19.91
2022-10-10T15:52:50.898Z,19.68
2022-10-10T15:57:53.617Z,19.39
2022-10-10T16:02:56.438Z,19.11
2022-10-10T16:08:00.850Z,18.83
2022-10-10T16:13:03.762Z,18.47
2022-10-10T16:18:07.013Z,18.23
2022-10-10T16:23:11.131Z,17.98
2022-10-10T16:28:13.998Z,17.73
2022-10-10T16:33:17.059Z,17.54
2022-10-10T16:38:21.271Z,17.31
2022-10-10T16:43:24.033Z,17.18
2022-10-10T16:48:26.884Z,17.04
2022-10-10T16:53:30.973Z,16.84
2022-10-10T16:58:34.166Z,16.69
2022-10-10T17:03:37.104Z,16.43
2022-10-10T17:08:41.567Z,16.09
2022-10-10T17:13:45.482Z,15.88
2022-10-10T17:18:49.380Z,15.71
2022-10-10T17:23:53.479Z,15.48
2022-10-10T17:28:58.863Z,15.20
2022-10-10T17:34:02.572Z,15.06
2022-10-10T17:39:07.569Z,14.94
2022-10-10T17:44:11.110Z,14.85
2022-10-10T17:49:14.110Z,14.73
2022-10-10T17:54:18.587Z,14.69
2022-10-10T17:59:21.348Z,14.62
2022-10-10T18:04:24.171Z,14.50
2022-10-10T18:09:28.265Z,14.49
2022-10-10T18:14:30.977Z,14.38
2022-10-10T18:19:33.994Z,14.33
2022-10-10T18:24:38.793Z,14.24
2022-10-10T18:29:42.353Z,14.22
2022-10-10T18:34:45.070Z,14.20
2022-10-10T18:39:49.347Z,14.18
2022-10-10T18:44:52.617Z,14.19
2022-10-10T18:49:55.306Z,14.17
2022-10-10T18:54:59.639Z,14.16
2022-10-10T19:00:02.387Z,14.14
2022-10-10T19:05:05.801Z,14.12
2022-10-10T19:10:10.146Z,14.10
2022-10-10T19:15:14.741Z,14.08
2022-10-10T19:20:17.894Z,14.04
2022-10-10T19:25:22.250Z,14.01
2022-10-10T19:30:26.569Z,13.98
2022-10-10T19:35:29.261Z,13.98
2022-10-10T19:40:33.529Z,13.95
2022-10-10T19:45:40.514Z,13.91
2022-10-10T19:50:45.105Z,13.90
2022-10-10T19:56:00.472Z,13.94
2022-10-10T20:01:07.425Z,13.94
2022-10-10T20:06:10.425Z,13.95
2022-10-10T20:11:15.518Z,13.95
2022-10-10T20:16:18.441Z,13.93
2022-10-10T20:21:24.145Z,13.91
2022-10-10T20:26:28.689Z,13.82
2022-10-10T20:37:02.241Z,13.62
2022-10-10T20:42:06.569Z,13.51
2022-10-10T20:47:09.375Z,13.41
2022-10-10T20:52:12.415Z,13.31
2022-10-10T20:57:16.541Z,13.22
2022-10-10T21:02:19.693Z,13.12
2022-10-10T21:07:23.517Z,13.05
2022-10-10T21:12:27.718Z,13.00
2022-10-10T21:17:31.478Z,13.00
2022-10-10T21:22:34.330Z,12.97
2022-10-10T21:27:38.433Z,12.94
2022-10-10T21:32:41.286Z,12.95
2022-10-10T21:37:45.450Z,12.92
2022-10-10T21:42:49.528Z,12.91
2022-10-10T21:47:52.267Z,12.91
2022-10-10T21:52:55.091Z,12.91
2022-10-10T21:57:59.656Z,12.92
2022-10-10T22:03:03.254Z,12.93
2022-10-10T22:08:06.041Z,12.91
2022-10-10T22:13:10.243Z,12.91
2022-10-10T22:18:13.206Z,12.90
2022-10-10T22:23:16.021Z,12.87
2022-10-10T22:28:21.432Z,12.84
2022-10-10T22:33:24.235Z,12.85
2022-10-10T22:38:27.115Z,12.87
2022-10-10T22:43:31.235Z,12.88
2022-10-10T22:48:34.017Z,12.89
2022-10-10T22:53:37.130Z,12.88
2022-10-10T22:58:41.180Z,12.84
2022-10-10T23:03:44.011Z,12.75
2022-10-10T23:08:46.753Z,12.65
2022-10-10T23:13:50.910Z,12.63
2022-10-10T23:18:53.626Z,12.51
2022-10-10T23:23:56.358Z,12.47
2022-10-10T23:29:00.614Z,12.40
2022-10-10T23:34:03.810Z,12.33
2022-10-10T23:39:09.734Z,12.24
2022-10-10T23:44:14.141Z,12.16
2022-10-10T23:49:16.878Z,12.02
2022-10-10T23:54:21.463Z,11.85
2022-10-10T23:59:26.233Z,11.66
